Time;durP1;ratioP1;P1;durP2;ratioP2;P2;SDS_P1;SDS_P2;PMS_P1;PMS_P2;Temp;Humidity;BMP_temperature;BMP_pressure;BME280_temperature;BME280_humidity;BME280_pressure;Samples;Min_cycle;Max_cycle;Signal;HPM_P1;HPM_P2
2022/09/20 00:01:11;;;;;;;11.32;1.23;;;;;;;16.46;49.48;102240.09;5091917;28;20032;-74
2022/09/20 00:03:39;;;;;;;4.30;1.25;;;;;;;16.43;49.83;102242.44;5091762;28;20081;-74
2022/09/20 00:06:08;;;;;;;12.45;1.30;;;;;;;16.35;50.50;102240.06;5092037;28;20040;-74
2022/09/20 00:08:34;;;;;;;4.80;1.52;;;;;;;16.42;50.04;102240.78;5091968;28;20040;-73
2022/09/20 00:11:05;;;;;;;15.63;2.67;;;;;;;16.29;50.13;102236.38;5073619;28;20372;-76
2022/09/20 00:13:32;;;;;;;12.57;1.67;;;;;;;16.24;49.98;102233.50;5092179;28;20040;-75
2022/09/20 00:15:58;;;;;;;6.25;1.50;;;;;;;16.28;50.01;102242.00;5091959;28;20423;-74
2022/09/20 00:18:24;;;;;;;6.80;1.02;;;;;;;16.22;50.30;102235.63;5091840;28;20071;-74
2022/09/20 00:20:49;;;;;;;8.82;1.00;;;;;;;16.23;50.41;102237.28;5082456;28;20036;-75
2022/09/20 00:23:15;;;;;;;13.18;1.15;;;;;;;16.24;50.30;102238.94;5071420;28;20123;-76
2022/09/20 00:25:41;;;;;;;4.45;0.93;;;;;;;16.26;50.25;102239.53;5071739;28;20032;-74
2022/09/20 00:28:07;;;;;;;9.30;1.70;;;;;;;16.43;49.18;102243.25;5071445;28;20036;-74
2022/09/20 00:30:34;;;;;;;8.77;1.63;;;;;;;16.45;49.27;102235.72;5071621;28;20055;-75
2022/09/20 00:32:59;;;;;;;9.60;1.33;;;;;;;16.50;48.66;102245.94;5087903;28;20059;-75
2022/09/20 00:35:25;;;;;;;6.80;1.48;;;;;;;16.51;48.76;102234.03;5091366;28;20738;-74
2022/09/20 00:37:50;;;;;;;7.75;2.03;;;;;;;16.49;48.85;102239.66;5074072;28;20044;-75
2022/09/20 00:40:21;;;;;;;4.72;1.08;;;;;;;16.45;48.65;102245.78;5091416;28;20040;-74
2022/09/20 00:42:48;;;;;;;8.65;1.30;;;;;;;16.49;49.07;102247.00;5091337;28;20180;-76
2022/09/20 00:45:21;;;;;;;9.90;2.22;;;;;;;16.58;48.60;102248.31;5091600;28;20463;-75
2022/09/20 00:48:01;;;;;;;4.85;1.02;;;;;;;16.53;48.80;102246.28;5073439;28;20527;-74
2022/09/20 00:50:29;;;;;;;6.88;1.25;;;;;;;16.46;49.16;102242.81;5091856;28;20060;-75
2022/09/20 00:53:10;;;;;;;8.50;1.40;;;;;;;16.45;48.71;102243.06;5091992;28;20036;-75
2022/09/20 00:55:41;;;;;;;9.45;1.02;;;;;;;16.42;49.25;102241.63;5091693;28;20052;-74
2022/09/20 00:58:07;;;;;;;13.05;2.20;;;;;;;16.31;49.69;102239.66;5091523;28;20044;-75
2022/09/20 01:00:32;;;;;;;12.05;1.95;;;;;;;16.30;49.96;102245.31;5091181;28;20047;-75
2022/09/20 01:03:04;;;;;;;9.57;1.33;;;;;;;16.24;49.93;102244.34;5090870;28;20059;-75
2022/09/20 01:05:30;;;;;;;6.50;1.23;;;;;;;16.15;49.98;102234.88;5090856;28;20055;-75
2022/09/20 01:07:56;;;;;;;5.53;1.35;;;;;;;16.16;50.20;102243.81;5090669;28;20451;-73
2022/09/20 01:10:22;;;;;;;11.30;1.40;;;;;;;16.17;50.31;102240.06;5090995;28;20038;-75
2022/09/20 01:12:50;;;;;;;7.00;1.80;;;;;;;16.05;50.52;102242.72;5090540;28;20051;-76
2022/09/20 01:15:17;;;;;;;7.47;1.10;;;;;;;16.05;50.60;102248.16;5090762;28;20041;-76
2022/09/20 01:17:49;;;;;;;10.55;1.10;;;;;;;15.99;51.29;102245.50;5090711;28;20036;-75
2022/09/20 01:20:34;;;;;;;5.60;1.30;;;;;;;16.31;50.19;102255.13;5090367;28;20039;-75
2022/09/20 01:23:08;;;;;;;7.63;1.58;;;;;;;16.09;51.07;102248.53;5092689;28;20559;-74
2022/09/20 01:25:59;;;;;;;10.10;1.80;;;;;;;16.03;51.14;102247.56;5095208;28;20036;-75
2022/09/20 01:28:27;;;;;;;4.57;1.00;;;;;;;16.27;50.21;102245.78;4993561;28;20077;-74
2022/09/20 01:31:06;;;;;;;12.05;1.85;;;;;;;16.23;50.74;102244.59;4993241;28;20050;-75
2022/09/20 01:33:37;;;;;;;8.00;1.45;;;;;;;16.06;51.09;102244.38;5012350;28;20046;-75
2022/09/20 01:36:03;;;;;;;;;;;;;;;16.21;51.01;102239.41;5002505;28;20070;-74
2022/09/20 01:38:47;;;;;;;12.88;1.15;;;;;;;16.27;50.48;102245.78;4993153;28;19914;-73
2022/09/20 01:41:27;;;;;;;8.82;1.40;;;;;;;16.18;50.36;102242.56;4992519;28;20081;-74
2022/09/20 01:44:31;;;;;;;6.53;1.77;;;;;;;16.15;50.82;102239.47;4992825;28;20030;-73
2022/09/20 01:47:05;;;;;;;7.53;1.17;;;;;;;16.07;51.29;102239.78;4934033;29;20059;-74
2022/09/20 01:49:49;;;;;;;12.25;2.17;;;;;;;15.99;51.58;102242.78;4935086;29;20075;-73
2022/09/20 01:52:42;;;;;;;11.85;1.30;;;;;;;16.06;51.12;102238.94;4933726;29;20040;-74
2022/09/20 01:55:36;;;;;;;13.95;1.52;;;;;;;15.94;51.59;102239.94;4934027;29;20540;-74
2022/09/20 01:58:21;;;;;;;9.13;1.30;;;;;;;15.88;51.55;102246.28;4934116;29;20051;-74
2022/09/20 02:01:16;;;;;;;12.10;1.60;;;;;;;15.89;51.60;102243.31;4934050;29;20579;-74
2022/09/20 02:04:31;;;;;;;12.88;1.65;;;;;;;15.91;51.70;102243.09;4933942;29;20155;-75
2022/09/20 02:07:37;;;;;;;13.38;1.13;;;;;;;15.85;51.50;102242.13;4896188;29;20052;-76
2022/09/20 02:10:08;;;;;;;7.45;1.98;;;;;;;15.75;51.88;102245.34;4896028;29;20037;-75
2022/09/20 02:12:51;;;;;;;10.15;1.50;;;;;;;15.66;52.06;102245.88;4895861;29;20040;-74
2022/09/20 02:15:50;;;;;;;8.90;1.42;;;;;;;15.66;52.28;102238.56;4898320;29;20048;-74
2022/09/20 02:18:46;;;;;;;5.60;1.05;;;;;;;15.54;52.95;102245.81;4910321;29;20036;-74
2022/09/20 02:21:21;;;;;;;5.32;1.95;;;;;;;15.61;52.28;102251.13;4914685;29;20048;-75
2022/09/20 02:24:11;;;;;;;5.68;1.38;;;;;;;15.60;52.34;102246.78;4914737;29;20052;-74
2022/09/20 02:26:49;;;;;;;3.90;1.67;;;;;;;15.69;52.26;102245.41;4914481;29;20048;-75
2022/09/20 02:29:26;;;;;;;9.98;2.13;;;;;;;15.68;52.17;102243.78;4929137;29;20248;-74
2022/09/20 02:32:10;;;;;;;13.95;1.60;;;;;;;15.68;52.31;102241.06;4938038;29;20133;-75
2022/09/20 02:34:42;;;;;;;6.82;1.48;;;;;;;15.68;52.24;102243.78;4951611;28;20039;-75
2022/09/20 02:37:10;;;;;;;11.60;1.60;;;;;;;15.69;52.80;102240.00;4952477;28;20043;-75
2022/09/20 02:39:41;;;;;;;6.30;1.20;;;;;;;15.88;52.56;102244.38;4952483;29;20043;-75
2022/09/20 02:42:18;;;;;;;10.15;1.98;;;;;;;15.93;52.60;102238.28;4960866;28;20074;-74
2022/09/20 02:45:03;;;;;;;15.25;2.72;;;;;;;15.93;52.62;102235.56;4971749;28;20056;-77
2022/09/20 02:47:37;;;;;;;11.65;1.60;;;;;;;16.16;52.20;102233.81;4993869;28;20049;-75
2022/09/20 02:50:21;;;;;;;7.82;1.42;;;;;;;16.10;52.00;102239.31;5033199;28;20076;-74
2022/09/20 02:53:30;;;;;;;8.27;1.98;;;;;;;16.02;52.65;102243.16;5033559;28;20033;-73
2022/09/20 02:56:17;;;;;;;11.68;1.58;;;;;;;16.12;52.52;102238.03;4971127;28;20055;-74
2022/09/20 02:59:02;;;;;;;9.75;1.42;;;;;;;16.31;52.16;102241.56;4972123;28;20035;-75
2022/09/20 03:01:55;;;;;;;18.48;1.80;;;;;;;16.23;52.15;102247.31;4971735;28;20043;-76
2022/09/20 03:04:55;;;;;;;15.00;2.40;;;;;;;16.39;52.09;102239.34;4971387;28;20043;-75
2022/09/20 03:07:36;;;;;;;15.48;1.50;;;;;;;16.53;51.92;102238.16;4971403;28;20411;-75
2022/09/20 03:10:23;;;;;;;6.18;1.55;;;;;;;16.59;51.51;102234.50;4971363;28;20530;-76
2022/09/20 03:12:56;;;;;;;6.60;1.30;;;;;;;16.61;52.54;102234.28;4971138;28;20167;-74
2022/09/20 03:15:39;;;;;;;17.83;2.20;;;;;;;16.65;52.01;102236.31;4974500;28;20057;-74
2022/09/20 03:18:10;;;;;;;9.73;1.55;;;;;;;16.80;51.67;102235.88;4974180;28;20046;-75
2022/09/20 03:21:05;;;;;;;7.07;1.08;;;;;;;16.83;51.87;102242.72;4990029;28;20117;-74
2022/09/20 03:23:56;;;;;;;6.35;1.27;;;;;;;16.85;51.38;102240.59;5000624;28;20546;-74
2022/09/20 03:26:56;;;;;;;;;;;;;;;16.87;51.37;102241.19;4995176;28;20046;-75
2022/09/20 03:29:41;;;;;;;9.60;1.20;;;;;;;16.80;51.35;102240.47;4970891;28;19925;-74
2022/09/20 03:32:45;;;;;;;8.18;1.38;;;;;;;16.58;51.13;102245.59;4976799;28;20068;-75
2022/09/20 03:35:36;;;;;;;7.60;1.48;;;;;;;16.55;51.54;102260.44;4990293;28;20038;-74
2022/09/20 03:38:28;;;;;;;7.32;2.20;;;;;;;16.63;51.30;102254.72;4990273;28;20506;-73
2022/09/20 03:41:10;;;;;;;8.95;1.35;;;;;;;16.76;50.83;102250.97;4990916;28;20042;-74
2022/09/20 03:44:13;;;;;;;10.48;1.50;;;;;;;16.91;50.89;102254.09;4990083;28;20046;-75
2022/09/20 03:46:47;;;;;;;7.65;1.45;;;;;;;17.00;50.79;102247.25;4989833;28;20054;-74
2022/09/20 03:49:45;;;;;;;8.88;1.73;;;;;;;16.89;51.39;102258.09;4990150;28;20125;-74
2022/09/20 03:52:22;;;;;;;14.38;2.42;;;;;;;17.04;50.76;102248.44;4989956;28;20034;-75
2022/09/20 03:55:25;;;;;;;6.18;1.40;;;;;;;17.17;50.44;102258.25;4989913;28;20061;-74
2022/09/20 03:58:40;;;;;;;9.35;1.95;;;;;;;16.85;51.54;102263.16;4989795;28;20056;-75
2022/09/20 04:01:24;;;;;;;4.38;1.15;;;;;;;17.21;50.65;102252.13;4955344;28;20175;-74
2022/09/20 04:04:01;;;;;;;9.77;2.70;;;;;;;17.26;50.35;102259.56;5026301;28;20041;-74
2022/09/20 04:07:08;;;;;;;6.07;1.58;;;;;;;17.20;51.02;102257.78;5060780;28;20074;-75
2022/09/20 04:10:08;;;;;;;8.63;1.70;;;;;;;17.22;51.06;102261.09;5058003;28;20164;-74
2022/09/20 04:12:48;;;;;;;12.18;1.80;;;;;;;17.31;50.82;102265.13;5068664;28;20044;-75
2022/09/20 04:15:24;;;;;;;14.48;1.55;;;;;;;17.14;51.47;102253.31;5051251;28;20131;-75
2022/09/20 04:18:11;;;;;;;22.95;3.22;;;;;;;17.21;51.39;102273.03;5060718;28;20048;-75
2022/09/20 04:20:45;;;;;;;6.38;1.65;;;;;;;17.09;52.10;102267.59;5066872;28;20179;-74
2022/09/20 04:23:23;;;;;;;7.18;2.05;;;;;;;16.80;52.69;102271.19;5069136;28;20044;-75
2022/09/20 04:25:50;;;;;;;5.32;1.58;;;;;;;16.92;52.48;102271.22;5069426;28;20040;-74
2022/09/20 04:28:27;;;;;;;3.83;1.65;;;;;;;17.17;51.78;102275.41;5068700;28;20065;-75
2022/09/20 04:30:58;;;;;;;9.30;2.72;;;;;;;17.14;51.96;102264.97;5068703;28;20041;-76
2022/09/20 04:33:28;;;;;;;16.85;1.80;;;;;;;17.23;51.64;102269.03;5068465;28;20049;-75
2022/09/20 04:36:28;;;;;;;15.32;1.80;;;;;;;17.29;51.51;102269.97;5069378;28;20056;-74
2022/09/20 04:39:20;;;;;;;9.10;1.42;;;;;;;17.45;51.48;102261.94;5087531;28;20457;-73
2022/09/20 04:42:14;;;;;;;6.45;1.65;;;;;;;17.45;51.57;102263.84;4987117;28;20074;-74
2022/09/20 04:45:16;;;;;;;10.95;2.10;;;;;;;17.55;51.38;102259.50;4977359;28;20122;-73
2022/09/20 04:48:26;;;;;;;7.85;1.42;;;;;;;17.53;52.21;102260.81;4977513;28;20093;-74
2022/09/20 04:51:07;;;;;;;8.02;1.40;;;;;;;17.53;51.40;102271.69;4979020;28;20506;-76
2022/09/20 04:53:35;;;;;;;9.38;2.08;;;;;;;17.57;51.69;102261.16;4978756;28;20043;-77
2022/09/20 04:56:14;;;;;;;12.35;2.03;;;;;;;17.58;51.86;102269.06;4977289;28;20060;-73
2022/09/20 04:58:51;;;;;;;6.18;3.00;;;;;;;17.50;52.28;102272.16;4983155;28;20074;-76
2022/09/20 05:01:51;;;;;;;10.00;2.05;;;;;;;17.43;52.17;102282.28;4981729;28;20066;-75
2022/09/20 05:04:44;;;;;;;10.85;2.15;;;;;;;17.63;51.71;102284.69;4983504;28;20039;-75
2022/09/20 05:07:44;;;;;;;9.10;1.60;;;;;;;17.52;52.08;102280.91;4981175;28;20035;-75
2022/09/20 05:10:40;;;;;;;8.52;1.95;;;;;;;17.56;52.17;102279.34;4981964;28;20138;-75
2022/09/20 05:13:37;;;;;;;13.32;1.40;;;;;;;17.62;51.97;102278.41;4990723;28;20050;-77
2022/09/20 05:16:20;;;;;;;4.80;2.33;;;;;;;17.47;52.58;102288.91;4934621;29;20044;-75
2022/09/20 05:19:03;;;;;;;11.93;2.33;;;;;;;17.48;52.43;102276.97;4971247;28;20052;-76
2022/09/20 05:22:06;;;;;;;7.97;2.13;;;;;;;17.62;52.13;102278.41;5012145;28;20068;-75
2022/09/20 05:24:37;;;;;;;10.10;1.60;;;;;;;17.57;52.55;102281.03;5011785;28;20061;-77
2022/09/20 05:27:21;;;;;;;;;;;;;;;17.80;51.57;102282.91;5012441;28;20552;-75
2022/09/20 05:30:18;;;;;;;4.55;1.35;;;;;;;17.82;51.77;102287.03;5011550;28;20397;-76
2022/09/20 05:32:49;;;;;;;14.68;1.48;;;;;;;17.74;51.87;102297.44;4997528;28;20046;-75
2022/09/20 05:35:15;;;;;;;4.63;1.55;;;;;;;17.89;51.97;102295.88;4992392;28;20076;-76
2022/09/20 05:37:58;;;;;;;10.40;2.28;;;;;;;17.95;51.88;102302.25;4992830;28;20122;-76
2022/09/20 05:41:01;;;;;;;7.93;1.73;;;;;;;17.94;51.77;102309.63;4991874;28;20050;-76
2022/09/20 05:43:32;;;;;;;7.80;1.83;;;;;;;17.97;51.78;102309.13;4991625;28;20038;-76
2022/09/20 05:46:25;;;;;;;10.13;1.95;;;;;;;17.83;52.34;102306.88;4991505;28;20068;-77
2022/09/20 05:49:19;;;;;;;9.82;1.70;;;;;;;17.97;51.70;102311.03;4992070;28;20034;-75
2022/09/20 05:52:12;;;;;;;16.13;2.22;;;;;;;17.84;52.23;102317.53;4992253;28;20042;-76
2022/09/20 05:55:05;;;;;;;11.60;2.22;;;;;;;17.94;52.22;102317.78;5073526;28;20041;-77
2022/09/20 05:57:38;;;;;;;9.63;2.03;;;;;;;18.17;51.62;102312.31;5073520;28;20051;-76
2022/09/20 06:00:17;;;;;;;6.13;1.95;;;;;;;17.89;52.56;102322.25;5073941;28;20041;-77
2022/09/20 06:03:05;;;;;;;7.90;1.92;;;;;;;17.94;52.78;102320.50;5073945;28;20541;-74
2022/09/20 06:05:44;;;;;;;6.60;2.55;;;;;;;18.06;52.79;102318.56;5090884;28;20036;-75
2022/09/20 06:08:22;;;;;;;11.40;1.98;;;;;;;18.02;52.41;102322.03;5078882;28;20392;-74
2022/09/20 06:11:05;;;;;;;11.93;1.70;;;;;;;17.94;52.93;102327.81;5074551;28;20044;-73
2022/09/20 06:14:02;;;;;;;9.43;1.92;;;;;;;18.14;52.31;102323.66;5078277;28;20079;-72
2022/09/20 06:16:42;;;;;;;15.27;3.60;;;;;;;18.36;51.93;102330.13;5083293;28;20048;-76
2022/09/20 06:19:28;;;;;;;8.27;2.28;;;;;;;18.47;51.95;102324.91;5079759;28;20360;-73
2022/09/20 06:21:55;;;;;;;8.38;1.70;;;;;;;18.58;51.68;102335.78;5078719;28;20059;-74
2022/09/20 06:24:32;;;;;;;7.97;1.70;;;;;;;18.47;51.72;102336.66;5080613;28;20555;-74
2022/09/20 06:27:03;;;;;;;5.47;1.23;;;;;;;18.60;51.83;102338.25;5077918;28;20033;-75
2022/09/20 06:29:32;;;;;;;6.20;1.42;;;;;;;18.34;52.45;102334.13;5076425;28;20040;-75
2022/09/20 06:31:57;;;;;;;8.13;1.70;;;;;;;18.26;52.42;102337.22;5079680;28;20053;-74
2022/09/20 06:34:23;;;;;;;7.25;1.55;;;;;;;17.89;53.95;102342.13;5077796;28;20055;-74
2022/09/20 06:43:29;;;;;;;8.38;1.48;;;;;;;18.79;51.90;102364.25;5077335;28;20113;-75
2022/09/20 06:45:55;;;;;;;5.78;1.38;;;;;;;18.38;53.13;102362.53;5076838;28;20082;-74
2022/09/20 06:48:20;;;;;;;9.65;3.10;;;;;;;18.55;52.63;102359.94;5076274;28;20504;-75
2022/09/20 06:50:45;;;;;;;7.20;1.60;;;;;;;18.25;53.60;102357.38;5082289;28;20071;-73
2022/09/20 06:53:17;;;;;;;6.65;1.40;;;;;;;18.67;52.69;102369.72;5071012;28;20032;-75
2022/09/20 06:55:44;;;;;;;8.25;1.65;;;;;;;18.76;52.36;102362.00;5077256;28;20035;-74
2022/09/20 06:58:10;;;;;;;6.85;1.67;;;;;;;18.46;53.78;102366.81;5091031;28;20441;-74
2022/09/20 07:00:35;;;;;;;4.85;1.10;;;;;;;18.09;54.66;102364.38;5085662;28;20123;-73
2022/09/20 07:03:02;;;;;;;8.45;1.35;;;;;;;18.60;53.25;102366.31;5091361;28;20032;-74
2022/09/20 07:05:28;;;;;;;8.60;1.02;;;;;;;18.66;53.28;102372.69;5091152;28;20123;-75
2022/09/20 07:07:57;;;;;;;6.35;1.67;;;;;;;18.36;54.15;102370.13;5089793;28;20016;-74
2022/09/20 07:10:23;;;;;;;6.75;1.25;;;;;;;18.23;55.48;102371.22;5080859;28;20098;-75
2022/09/20 07:12:49;;;;;;;3.53;1.10;;;;;;;17.66;56.66;102376.63;5052186;28;20055;-74
2022/09/20 07:15:15;;;;;;;7.72;2.17;;;;;;;17.86;56.72;102374.41;5070982;28;20040;-74
2022/09/20 07:17:44;;;;;;;9.60;1.30;;;;;;;18.02;55.50;102363.66;5081324;28;20033;-75
2022/09/20 07:20:09;;;;;;;5.28;0.88;;;;;;;18.66;54.24;102357.19;5072258;28;20048;-75
2022/09/20 07:22:35;;;;;;;6.95;0.70;;;;;;;18.93;53.65;102354.69;5091121;28;20070;-74
2022/09/20 07:25:01;;;;;;;2.85;1.00;;;;;;;19.21;53.01;102354.69;5061943;28;20054;-75
2022/09/20 07:27:28;;;;;;;4.35;1.05;;;;;;;19.26;52.79;102347.41;5090576;28;20420;-73
2022/09/20 07:29:54;;;;;;;10.23;2.45;;;;;;;19.37;52.66;102356.63;5072549;28;20611;-74
2022/09/20 07:32:19;;;;;;;10.43;1.30;;;;;;;19.23;53.07;102353.38;5084123;28;20040;-74
2022/09/20 07:34:45;;;;;;;4.25;1.10;;;;;;;18.91;53.68;102354.09;5091325;28;20040;-75
2022/09/20 07:37:10;;;;;;;9.93;1.50;;;;;;;19.23;53.24;102352.53;5089655;28;20032;-73
2022/09/20 07:39:36;;;;;;;3.20;1.15;;;;;;;19.34;53.16;102348.94;5090928;28;20047;-73
2022/09/20 07:42:05;;;;;;;4.03;1.00;;;;;;;19.61;51.94;102343.69;5083285;28;20033;-73
2022/09/20 07:44:30;;;;;;;4.57;1.25;;;;;;;19.75;51.66;102340.34;5070393;28;20408;-74
2022/09/20 07:46:58;;;;;;;5.25;1.15;;;;;;;19.22;53.11;102348.19;5074428;28;20047;-76
2022/09/20 07:49:25;;;;;;;5.60;1.00;;;;;;;19.38;52.69;102349.28;5080029;28;20034;-75
2022/09/20 07:51:51;;;;;;;3.50;0.90;;;;;;;19.11;52.82;102349.03;5070466;28;20051;-77
2022/09/20 07:54:17;;;;;;;6.20;2.20;;;;;;;19.27;53.15;102354.53;5056722;28;20040;-76
2022/09/20 07:56:43;;;;;;;4.28;0.80;;;;;;;19.41;52.45;102356.97;5080398;28;20036;-76
2022/09/20 07:59:09;;;;;;;5.45;1.10;;;;;;;19.66;51.66;102363.66;5077554;28;20380;-75
2022/09/20 08:01:35;;;;;;;10.35;1.63;;;;;;;19.33;52.86;102368.28;5075387;28;20016;-76
2022/09/20 08:04:03;;;;;;;6.90;1.35;;;;;;;19.19;53.14;102384.09;5072961;28;20115;-77
2022/09/20 08:06:29;;;;;;;9.25;1.30;;;;;;;19.25;52.99;102373.03;5056183;28;20048;-77
2022/09/20 08:08:54;;;;;;;7.30;2.33;;;;;;;19.19;53.33;102376.75;5067896;28;20036;-78
2022/09/20 08:11:24;;;;;;;6.10;1.15;;;;;;;19.58;52.30;102371.44;5067237;28;20384;-77
2022/09/20 08:13:51;;;;;;;9.80;1.27;;;;;;;19.08;53.32;102382.25;5068075;28;20481;-75
2022/09/20 08:16:17;;;;;;;5.75;1.33;;;;;;;19.39;53.66;102389.09;5073540;28;20243;-77
2022/09/20 08:18:55;;;;;;;1.85;0.75;;;;;;;19.44;51.82;102381.03;5059888;28;20056;-75
2022/09/20 08:21:20;;;;;;;7.70;1.48;;;;;;;19.61;51.18;102381.84;5067231;28;20381;-78
2022/09/20 08:23:49;;;;;;;6.22;1.05;;;;;;;20.13;50.58;102384.03;5067628;28;20044;-76
2022/09/20 08:26:17;;;;;;;6.47;0.95;;;;;;;20.01;49.90;102379.75;5080957;28;20127;-77
2022/09/20 08:28:44;;;;;;;5.05;0.77;;;;;;;20.51;49.62;102377.78;5087109;28;20012;-76
2022/09/20 08:31:15;;;;;;;5.88;0.93;;;;;;;20.87;48.35;102381.78;5088068;28;20514;-78
2022/09/20 08:33:42;;;;;;;8.80;1.27;;;;;;;20.59;47.57;102381.97;5082782;28;20659;-77
2022/09/20 08:36:11;;;;;;;7.35;1.15;;;;;;;20.68;48.87;102389.47;5076043;28;20491;-76
2022/09/20 08:38:36;;;;;;;8.60;1.92;;;;;;;20.20;50.12;102394.84;5071476;28;20033;-76
2022/09/20 08:41:11;;;;;;;8.43;1.02;;;;;;;19.74;51.11;102395.16;5071924;28;20059;-75
2022/09/20 08:43:41;;;;;;;4.97;0.80;;;;;;;20.21;50.79;102393.75;5071581;28;21712;-77
2022/09/20 08:46:16;;;;;;;3.33;0.70;;;;;;;20.13;50.08;102394.97;5071028;28;20699;-76
2022/09/20 08:48:43;;;;;;;4.47;0.63;;;;;;;20.09;49.18;102399.28;5073957;28;20028;-76
2022/09/20 08:51:11;;;;;;;5.90;0.80;;;;;;;20.10;48.82;102395.47;5088793;28;20028;-79
2022/09/20 08:53:45;;;;;;;11.13;1.17;;;;;;;20.30;48.40;102394.16;5090723;28;20092;-77
2022/09/20 08:56:10;;;;;;;6.47;1.08;;;;;;;20.04;48.97;102396.47;5064090;28;20032;-75
2022/09/20 08:58:37;;;;;;;2.65;0.50;;;;;;;20.17;49.07;102400.75;5079368;28;20089;-76
2022/09/20 09:01:04;;;;;;;4.22;0.88;;;;;;;19.98;48.33;102397.47;5087449;28;20464;-77
2022/09/20 09:03:31;;;;;;;4.32;0.88;;;;;;;20.05;49.24;102397.28;5075144;28;20358;-78
2022/09/20 09:05:57;;;;;;;6.78;1.20;;;;;;;20.51;47.80;102398.78;5071245;28;20136;-76
2022/09/20 09:08:29;;;;;;;8.68;1.02;;;;;;;21.09;46.14;102392.69;5082384;28;20121;-77
2022/09/20 09:11:07;;;;;;;11.93;2.10;;;;;;;20.30;47.37;102400.44;5077596;28;20627;-73
2022/09/20 09:13:38;;;;;;;3.28;0.85;;;;;;;20.20;47.75;102403.03;5074673;28;20032;-76
2022/09/20 09:16:16;;;;;;;3.80;0.80;;;;;;;20.57;46.12;102404.09;5074563;28;20375;-79
2022/09/20 09:18:44;;;;;;;7.68;1.05;;;;;;;20.61;46.28;102402.50;5076567;28;20063;-76
2022/09/20 09:21:19;;;;;;;9.43;1.00;;;;;;;20.83;45.94;102402.50;5078731;28;20043;-78
2022/09/20 09:23:56;;;;;;;4.45;1.30;;;;;;;19.73;48.54;102405.25;5081470;28;20028;-75
2022/09/20 09:26:23;;;;;;;3.63;0.75;;;;;;;21.15;46.38;102405.34;5080412;28;20052;-78
2022/09/20 09:29:21;;;;;;;3.10;0.90;;;;;;;20.49;47.94;102409.97;5058401;28;20027;-79
2022/09/20 09:31:50;;;;;;;11.32;1.13;;;;;;;20.85;47.34;102401.13;5075922;28;20056;-76
2022/09/20 09:34:21;;;;;;;6.55;0.73;;;;;;;21.19;45.21;102401.81;5075448;28;20402;-79
2022/09/20 09:36:46;;;;;;;9.05;1.25;;;;;;;21.13;46.92;102402.03;5077522;28;20040;-76
2022/09/20 09:39:21;;;;;;;9.15;2.45;;;;;;;21.87;45.47;102403.84;5081854;28;20058;-75
2022/09/20 09:41:46;;;;;;;3.35;0.82;;;;;;;21.39;45.25;102402.03;5085328;28;20051;-79
2022/09/20 09:44:20;;;;;;;4.47;0.80;;;;;;;20.88;45.98;102403.38;5078779;28;20445;-77
2022/09/20 09:46:45;;;;;;;6.10;0.93;;;;;;;21.71;44.80;102408.34;5083045;28;20032;-77
2022/09/20 09:49:22;;;;;;;4.85;0.93;;;;;;;21.78;44.99;102400.72;5081363;28;20043;-77
2022/09/20 09:52:02;;;;;;;4.28;0.65;;;;;;;20.53;47.25;102410.28;5077205;28;20029;-78
2022/09/20 09:54:32;;;;;;;8.35;0.80;;;;;;;21.13;46.04;102404.78;5077804;28;20043;-79
2022/09/20 09:57:23;;;;;;;3.78;0.95;;;;;;;20.48;47.82;102412.97;5074429;28;20550;-78
2022/09/20 10:00:22;;;;;;;11.60;1.55;;;;;;;19.93;47.80;102418.41;4966312;28;20141;-78
2022/09/20 10:03:44;;;;;;;2.08;0.52;;;;;;;20.17;48.25;102416.31;4968513;28;20430;-79
2022/09/20 10:06:21;;;;;;;6.97;1.00;;;;;;;20.45;47.18;102414.28;4878829;29;20041;-78
2022/09/20 10:08:52;;;;;;;12.68;1.38;;;;;;;20.99;45.77;102415.25;4875664;29;20045;-78
2022/09/20 10:11:40;;;;;;;2.95;0.98;;;;;;;21.86;44.04;102413.13;4876899;29;20148;-77
2022/09/20 10:14:23;;;;;;;5.40;0.80;;;;;;;22.25;43.40;102414.50;4877880;29;20078;-78
2022/09/20 10:17:02;;;;;;;5.20;0.90;;;;;;;22.15;42.67;102398.00;4876302;29;20049;-76
2022/09/20 10:19:39;;;;;;;7.78;1.05;;;;;;;21.55;42.02;102398.34;4878532;29;20045;-77
2022/09/20 10:22:22;;;;;;;9.45;1.02;;;;;;;22.33;40.09;102399.47;4878464;29;20423;-76
2022/09/20 10:25:09;;;;;;;7.68;1.13;;;;;;;21.23;41.69;102399.41;4877418;29;20033;-78
2022/09/20 10:27:34;;;;;;;8.32;1.30;;;;;;;22.22;40.01;102392.28;4878688;29;20052;-76
2022/09/20 10:30:19;;;;;;;4.85;1.02;;;;;;;21.83;40.24;102394.50;4878667;29;20134;-79
2022/09/20 10:32:52;;;;;;;5.30;0.75;;;;;;;22.33;40.24;102399.47;4869521;29;20041;-79
2022/09/20 10:35:33;;;;;;;5.05;1.15;;;;;;;21.99;40.67;102395.44;4876169;29;20049;-77
2022/09/20 10:38:14;;;;;;;7.97;0.90;;;;;;;21.86;40.25;102393.16;4953217;28;20145;-78
2022/09/20 10:44:15;;;;;;;9.65;2.38;;;;;;;21.37;39.79;102403.34;5064621;28;20051;-77
2022/09/20 10:47:09;;;;;;;6.95;1.83;;;;;;;21.59;40.29;102409.59;5065050;28;20127;-77
2022/09/20 10:49:41;;;;;;;11.18;1.45;;;;;;;22.34;38.71;102403.88;5062218;28;20634;-77
2022/09/20 10:52:24;;;;;;;3.60;1.02;;;;;;;22.55;38.54;102395.50;5068158;28;20044;-77
2022/09/20 10:54:56;;;;;;;7.90;1.65;;;;;;;20.88;43.02;102410.72;5065286;28;20048;-76
2022/09/20 10:58:17;;;;;;;6.50;0.60;;;;;;;20.04;48.28;102410.13;5075134;28;20051;-78
2022/09/20 11:01:28;;;;;;;8.07;1.10;;;;;;;19.42;51.89;102419.44;5092010;28;20056;-76
2022/09/20 11:04:12;;;;;;;5.28;0.98;;;;;;;18.11;54.26;102432.97;5029493;28;20109;-74
2022/09/20 11:06:52;;;;;;;2.53;0.80;;;;;;;18.77;53.97;102431.75;5026162;28;20058;-77
2022/09/20 11:09:23;;;;;;;8.48;1.15;;;;;;;18.80;53.79;102434.81;5023462;28;20522;-77
2022/09/20 11:12:03;;;;;;;9.73;0.90;;;;;;;19.22;51.62;102436.19;4993363;28;20046;-78
2022/09/20 11:14:37;;;;;;;9.65;1.13;;;;;;;19.67;51.50;102438.16;5009281;28;20046;-76
2022/09/20 11:17:25;;;;;;;8.00;1.70;;;;;;;20.14;49.88;102431.28;5083730;27;20707;-77
2022/09/20 11:19:56;;;;;;;6.32;1.75;;;;;;;20.53;49.61;102438.44;5048806;28;20116;-77
2022/09/20 11:22:47;;;;;;;6.53;1.27;;;;;;;20.94;49.07;102434.31;5048869;28;20041;-78
2022/09/20 11:25:28;;;;;;;11.70;1.55;;;;;;;21.24;48.82;102429.22;5044314;28;20612;-77
2022/09/20 11:28:02;;;;;;;13.02;1.70;;;;;;;21.07;48.28;102430.41;5048315;28;20041;-76
2022/09/20 11:30:32;;;;;;;10.18;1.33;;;;;;;21.07;47.93;102427.66;5043428;28;20037;-78
2022/09/20 11:33:16;;;;;;;3.20;1.20;;;;;;;21.15;47.27;102435.41;5047612;28;20045;-76
2022/09/20 11:35:46;;;;;;;10.82;1.20;;;;;;;20.93;47.36;102429.94;5047293;28;20052;-77
2022/09/20 11:38:36;;;;;;;6.18;1.13;;;;;;;21.25;46.11;102433.59;5044934;28;20123;-76
2022/09/20 11:41:18;;;;;;;5.13;1.13;;;;;;;21.46;45.94;102432.72;5052472;28;20053;-78
2022/09/20 11:43:45;;;;;;;8.68;1.33;;;;;;;21.42;45.71;102426.13;5047614;28;20477;-76
2022/09/20 11:46:17;;;;;;;7.07;2.08;;;;;;;21.49;46.39;102428.66;5045368;28;20033;-77
2022/09/20 11:48:57;;;;;;;10.23;2.25;;;;;;;21.69;45.67;102432.41;5046773;28;20043;-74
2022/09/20 11:51:28;;;;;;;12.45;1.63;;;;;;;;;;5047426;28;20448;-77
2022/09/20 11:54:14;;;;;;;6.28;0.93;;;;;;;21.87;43.39;102424.91;5047373;28;20052;-77
2022/09/20 11:56:39;;;;;;;7.30;1.13;;;;;;;21.19;43.56;102425.63;5042650;28;20037;-77
2022/09/20 11:59:24;;;;;;;6.10;1.00;;;;;;;20.80;42.93;102438.50;5047251;28;20097;-78
2022/09/20 12:01:55;;;;;;;8.98;1.75;;;;;;;21.69;42.10;102435.16;5044779;28;20104;-77
2022/09/20 12:04:25;;;;;;;;;;;;;;;22.11;41.12;102423.47;5047259;28;20485;-77
2022/09/20 12:07:06;;;;;;;5.13;0.98;;;;;;;22.25;41.06;102436.41;5046479;28;19924;-77
2022/09/20 12:09:35;;;;;;;5.57;1.25;;;;;;;22.40;41.03;102432.94;5046843;28;20045;-78
2022/09/20 12:12:41;;;;;;;1.60;0.60;;;;;;;21.45;42.85;102436.56;5045899;28;20124;-78
2022/09/20 12:15:24;;;;;;;3.50;0.65;;;;;;;21.20;41.65;102428.09;5045937;28;20053;-78
2022/09/20 12:17:50;;;;;;;13.18;1.02;;;;;;;21.41;41.75;102429.94;5042247;28;20037;-76
2022/09/20 12:20:43;;;;;;;4.20;1.00;;;;;;;22.12;39.86;102428.66;5044457;28;20128;-77
2022/09/20 12:23:40;;;;;;;3.75;0.73;;;;;;;22.22;38.49;102426.00;5043610;28;20037;-76